Time;durP1;ratioP1;P1;durP2;ratioP2;P2;SDS_P1;SDS_P2;PMS_P1;PMS_P2;Temp;Humidity;BMP_temperature;BMP_pressure;BME280_temperature;BME280_humidity;BME280_pressure;Samples;Min_cycle;Max_cycle;Signal;HPM_P1;HPM_P2
2022/07/28 00:01:22;;;;;;;2.30;2.20;;;;;;;14.45;83.53;65705.63;5095527;28;20190;-71
2022/07/28 00:03:48;;;;;;;1.70;1.60;;;;;;;14.43;83.50;65703.41;5095469;28;20235;-70
2022/07/28 00:06:15;;;;;;;1.87;1.87;;;;;;;14.38;83.63;65692.63;5095199;28;20217;-71
2022/07/28 00:08:41;;;;;;;2.13;2.13;;;;;;;14.36;83.86;65687.78;5095176;28;20190;-71
2022/07/28 00:11:08;;;;;;;2.07;2.00;;;;;;;14.37;83.95;65688.88;5095011;28;20194;-71
2022/07/28 00:13:34;;;;;;;2.30;2.30;;;;;;;14.32;84.14;65683.31;5095342;28;20262;-71
2022/07/28 00:16:01;;;;;;;1.90;1.90;;;;;;;14.29;84.35;65683.16;5095230;28;20263;-71
2022/07/28 00:18:28;;;;;;;2.30;2.10;;;;;;;14.26;84.72;65677.19;5095265;28;20227;-71
2022/07/28 00:20:55;;;;;;;1.50;1.50;;;;;;;14.20;84.97;65669.97;5094968;28;20593;-71
2022/07/28 00:23:21;;;;;;;1.40;1.40;;;;;;;14.20;85.16;65672.59;5094871;28;20186;-71
2022/07/28 00:26:03;;;;;;;1.73;1.73;;;;;;;14.18;85.44;65672.97;5095419;28;20174;-71
2022/07/28 00:28:30;;;;;;;6.73;1.60;;;;;;;14.15;85.68;65669.66;5094697;28;20239;-71
2022/07/28 00:30:56;;;;;;;2.30;2.30;;;;;;;;;;5094656;28;20715;-71
2022/07/28 00:33:30;;;;;;;2.13;2.07;;;;;;;14.15;85.98;65664.97;5094962;28;20182;-71
2022/07/28 00:35:56;;;;;;;2.60;1.80;;;;;;;14.14;86.17;65660.69;5094824;28;20819;-71
2022/07/28 00:38:23;;;;;;;2.10;2.00;;;;;;;14.10;86.30;65656.25;5094536;28;20194;-71
2022/07/28 00:41:09;;;;;;;1.93;1.83;;;;;;;14.10;86.52;65658.88;5094552;28;20268;-71
2022/07/28 00:43:44;;;;;;;2.00;2.00;;;;;;;14.11;86.68;65657.38;5094741;28;20166;-70
2022/07/28 00:46:13;;;;;;;4.63;1.90;;;;;;;14.07;86.93;65652.91;5094454;28;20260;-70
2022/07/28 00:48:43;;;;;;;2.07;2.00;;;;;;;14.05;86.79;65651.78;5094658;28;20566;-70
2022/07/28 00:51:10;;;;;;;2.33;2.27;;;;;;;14.03;87.11;65656.84;5094530;28;20198;-70
2022/07/28 00:53:37;;;;;;;4.20;2.03;;;;;;;14.00;87.17;65646.25;5094132;28;20182;-70
2022/07/28 00:56:05;;;;;;;1.90;1.90;;;;;;;13.99;87.49;65644.56;5094270;28;20186;-70
2022/07/28 00:58:34;;;;;;;2.00;1.90;;;;;;;14.00;87.65;65645.69;5094417;28;20212;-71
2022/07/28 01:01:00;;;;;;;3.30;2.40;;;;;;;;;;5094417;28;20212;-71
2022/07/28 01:03:28;;;;;;;3.83;2.20;;;;;;;13.92;88.14;65642.00;5094117;28;20217;-71
2022/07/28 01:05:57;;;;;;;2.50;2.50;;;;;;;13.87;88.52;65633.84;5094005;28;20205;-71
2022/07/28 01:08:39;;;;;;;1.97;1.97;;;;;;;13.80;88.90;65618.81;5094016;28;20186;-71
2022/07/28 01:11:16;;;;;;;2.00;2.00;;;;;;;13.80;88.88;65631.84;5094221;28;20193;-71
2022/07/28 01:14:02;;;;;;;2.30;2.20;;;;;;;13.76;89.27;65627.38;5093912;28;20574;-71
2022/07/28 01:16:29;;;;;;;2.10;2.10;;;;;;;13.82;89.30;65625.69;5093891;28;20177;-71
2022/07/28 01:19:08;;;;;;;2.43;2.33;;;;;;;13.71;89.71;65624.44;5093871;28;20668;-71
2022/07/28 01:21:36;;;;;;;2.17;2.17;;;;;;;13.70;89.98;65612.88;5094378;28;20527;-71
2022/07/28 01:24:14;;;;;;;2.17;2.17;;;;;;;13.72;90.07;65615.13;5093695;28;20201;-71
2022/07/28 01:26:52;;;;;;;2.30;2.20;;;;;;;13.66;90.17;65608.47;5093772;28;20596;-71
2022/07/28 01:29:40;;;;;;;2.13;2.13;;;;;;;13.66;90.22;65600.63;5093797;28;20170;-72
2022/07/28 01:32:14;;;;;;;2.77;2.67;;;;;;;13.62;90.55;65609.22;5094237;28;20207;-71
2022/07/28 01:34:47;;;;;;;2.47;2.37;;;;;;;;;;5093572;28;20209;-71
2022/07/28 01:37:19;;;;;;;2.37;2.33;;;;;;;13.56;91.12;65605.16;5093859;28;20193;-71
2022/07/28 01:39:51;;;;;;;2.20;2.20;;;;;;;13.52;91.33;65603.31;5094163;28;20571;-71
2022/07/28 01:42:21;;;;;;;2.00;1.90;;;;;;;13.51;91.48;65594.94;5093567;28;20231;-71
2022/07/28 01:44:51;;;;;;;2.77;2.57;;;;;;;13.46;91.56;65595.16;5093734;28;20210;-70
2022/07/28 01:47:19;;;;;;;1.70;1.50;;;;;;;13.47;91.53;65591.06;5094348;28;20247;-70
2022/07/28 01:49:49;;;;;;;1.90;1.90;;;;;;;13.44;91.71;65587.16;5093625;28;20235;-71
2022/07/28 01:52:18;;;;;;;2.27;2.27;;;;;;;13.43;91.60;65591.84;5093425;28;20175;-71
2022/07/28 01:54:46;;;;;;;3.80;2.30;;;;;;;13.44;91.62;65590.34;5093328;28;20193;-71
2022/07/28 01:57:15;;;;;;;1.93;1.93;;;;;;;13.40;91.92;65575.44;5094451;28;20583;-71
2022/07/28 01:59:42;;;;;;;2.67;2.57;;;;;;;;;;5093301;28;20242;-71
2022/07/28 02:02:09;;;;;;;2.37;2.37;;;;;;;;;;5093849;28;20206;-71
2022/07/28 02:04:39;;;;;;;3.40;2.03;;;;;;;13.32;92.40;65579.03;5094384;28;20232;-71
2022/07/28 02:07:09;;;;;;;1.83;1.77;;;;;;;13.30;92.50;65576.84;5097775;28;20649;-71
2022/07/28 02:09:36;;;;;;;2.00;1.90;;;;;;;13.27;92.54;65574.03;5097518;28;20178;-71
2022/07/28 02:12:04;;;;;;;1.90;1.90;;;;;;;13.27;92.63;65568.81;5097345;28;20201;-71
2022/07/28 02:14:35;;;;;;;2.23;2.23;;;;;;;13.22;92.94;65568.50;5097317;28;20202;-71
2022/07/28 02:17:08;;;;;;;2.20;2.20;;;;;;;13.18;93.04;65569.22;5097611;28;20221;-71
2022/07/28 02:19:38;;;;;;;2.07;2.07;;;;;;;13.14;93.30;65552.31;5097332;28;20219;-71
2022/07/28 02:22:05;;;;;;;2.63;2.53;;;;;;;;;;5097223;28;20594;-71
2022/07/28 02:24:32;;;;;;;2.30;2.30;;;;;;;13.18;93.21;65559.38;5097104;28;20241;-71
2022/07/28 02:27:04;;;;;;;2.20;2.20;;;;;;;13.14;93.54;65556.97;5097007;28;20185;-71
2022/07/28 02:29:43;;;;;;;3.40;2.40;;;;;;;13.05;93.89;65544.38;5097103;28;20185;-71
2022/07/28 02:32:28;;;;;;;2.27;2.20;;;;;;;12.99;94.32;65538.25;5097356;28;20686;-71
2022/07/28 02:35:00;;;;;;;3.00;1.90;;;;;;;13.01;94.17;65539.94;5096944;28;20209;-71
2022/07/28 02:37:33;;;;;;;2.43;2.43;;;;;;;12.98;94.43;65534.53;5097553;28;20219;-71
2022/07/28 02:40:03;;;;;;;3.13;2.37;;;;;;;12.90;94.78;65526.22;5078811;28;20200;-71
2022/07/28 02:42:32;;;;;;;2.20;2.20;;;;;;;12.85;95.29;65522.69;5096840;28;20186;-71
2022/07/28 02:45:01;;;;;;;2.47;2.47;;;;;;;12.74;96.13;65511.06;5096728;28;20213;-70
2022/07/28 02:47:33;;;;;;;2.83;2.07;;;;;;;12.85;95.73;65522.69;5097024;28;20549;-71
2022/07/28 02:50:01;;;;;;;1.93;1.90;;;;;;;12.73;96.33;65514.59;5097230;28;20181;-71
2022/07/28 02:52:28;;;;;;;2.60;2.40;;;;;;;;;;5096638;28;20190;-71
2022/07/28 02:54:57;;;;;;;2.00;2.00;;;;;;;12.74;96.52;65513.09;5096548;28;20240;-71
2022/07/28 02:57:25;;;;;;;2.50;2.50;;;;;;;12.68;96.72;65504.94;5096561;28;20188;-71
2022/07/28 02:59:53;;;;;;;2.67;2.67;;;;;;;12.72;96.52;65506.22;5096758;28;20606;-71
2022/07/28 03:02:20;;;;;;;2.70;2.60;;;;;;;12.65;97.06;65506.28;5078325;28;20188;-71
2022/07/28 03:05:00;;;;;;;2.10;2.00;;;;;;;12.64;97.29;65507.75;5096470;28;20269;-71
2022/07/28 03:07:29;;;;;;;2.43;2.43;;;;;;;12.63;97.38;65504.59;5096659;28;20191;-71
2022/07/28 03:09:56;;;;;;;2.47;2.37;;;;;;;12.58;97.63;65501.09;5096299;28;20187;-71
2022/07/28 03:12:23;;;;;;;2.53;2.43;;;;;;;12.58;97.30;65491.25;5096508;28;20563;-71
2022/07/28 03:14:49;;;;;;;2.80;2.40;;;;;;;;;;5096162;28;20258;-70
2022/07/28 03:17:16;;;;;;;2.80;2.60;;;;;;;12.54;97.84;65488.84;5094785;28;20192;-70
2022/07/28 03:19:42;;;;;;;2.67;2.57;;;;;;;12.55;98.34;65500.38;5096108;28;20639;-71
2022/07/28 03:22:10;;;;;;;2.03;2.03;;;;;;;12.56;98.00;65483.81;5096345;28;20211;-71
2022/07/28 03:24:40;;;;;;;2.20;2.17;;;;;;;12.53;98.06;65492.94;5095919;28;20213;-71
2022/07/28 03:27:24;;;;;;;4.43;1.83;;;;;;;;;;5096070;28;20218;-71
2022/07/28 03:29:58;;;;;;;1.97;1.97;;;;;;;12.56;98.08;65493.66;5096535;28;20551;-71
2022/07/28 03:32:33;;;;;;;2.03;2.03;;;;;;;12.50;98.18;65484.97;5096054;28;20200;-71
2022/07/28 03:35:00;;;;;;;1.80;1.80;;;;;;;12.44;98.39;65475.69;5096355;28;20269;-70
2022/07/28 03:37:34;;;;;;;2.03;2.03;;;;;;;12.40;98.79;65482.22;5096072;28;20187;-71
2022/07/28 03:40:03;;;;;;;2.40;2.40;;;;;;;12.39;98.59;65488.91;5095783;28;20253;-71
2022/07/28 03:42:31;;;;;;;2.30;2.20;;;;;;;;;;5095899;28;20189;-71
2022/07/28 03:44:59;;;;;;;2.50;2.50;;;;;;;12.34;99.03;65478.16;5096139;28;20210;-71
2022/07/28 03:47:25;;;;;;;2.13;2.03;;;;;;;12.30;99.20;65465.91;5095600;28;20218;-71
2022/07/28 03:49:52;;;;;;;4.80;2.47;;;;;;;12.27;99.32;65456.81;5095791;28;20189;-71
2022/07/28 03:52:18;;;;;;;2.83;2.60;;;;;;;12.30;99.42;65463.31;5095478;28;20637;-71
2022/07/28 03:54:45;;;;;;;2.47;2.37;;;;;;;12.31;99.18;65463.88;5095671;28;20570;-70
2022/07/28 03:57:12;;;;;;;3.43;2.37;;;;;;;12.30;99.37;65463.31;5095377;28;20186;-71
2022/07/28 03:59:39;;;;;;;2.80;2.70;;;;;;;;;;5095341;28;20231;-71
2022/07/28 04:02:05;;;;;;;4.50;2.37;;;;;;;12.25;99.51;65460.34;5095858;28;20215;-71
2022/07/28 04:04:32;;;;;;;2.37;2.27;;;;;;;12.27;99.41;65462.03;5095523;28;20581;-71
2022/07/28 04:06:58;;;;;;;2.63;2.57;;;;;;;12.28;99.69;65461.06;5095247;28;20249;-71
2022/07/28 04:09:25;;;;;;;2.33;2.33;;;;;;;12.26;99.55;65458.31;5095138;28;20194;-71
2022/07/28 04:11:51;;;;;;;3.50;2.37;;;;;;;12.27;99.77;65457.38;5095043;28;20264;-71
2022/07/28 04:14:18;;;;;;;2.07;2.07;;;;;;;12.24;99.93;65464.47;5095065;28;20206;-70
2022/07/28 04:16:45;;;;;;;3.30;2.10;;;;;;;12.17;100.00;65448.88;5095521;28;20235;-70
2022/07/28 04:19:11;;;;;;;2.53;2.43;;;;;;;12.26;100.00;65458.31;5094958;28;20613;-70
2022/07/28 04:21:37;;;;;;;2.43;2.40;;;;;;;12.26;100.00;65464.06;5094925;28;20186;-70
2022/07/28 04:24:04;;;;;;;2.53;2.53;;;;;;;12.25;100.00;65460.34;5094752;28;20253;-70
2022/07/28 04:26:31;;;;;;;2.37;2.37;;;;;;;12.19;100.00;65451.09;5094932;28;20190;-70
2022/07/28 04:28:57;;;;;;;2.63;2.60;;;;;;;12.20;100.00;65457.41;5094982;28;20501;-71
2022/07/28 04:31:28;;;;;;;3.60;3.33;;;;;;;12.27;99.98;65470.38;5095001;28;20200;-71
2022/07/28 04:34:00;;;;;;;5.60;2.90;;;;;;;12.20;100.00;65462.06;5095708;28;20581;-70
2022/07/28 04:36:26;;;;;;;6.23;3.20;;;;;;;12.27;100.00;65459.97;5094680;28;20220;-71
2022/07/28 04:38:53;;;;;;;7.63;2.40;;;;;;;12.26;100.00;65463.50;5094631;28;20240;-71
2022/07/28 04:41:20;;;;;;;4.20;2.47;;;;;;;12.26;100.00;65461.47;5094803;28;20236;-71
2022/07/28 04:43:46;;;;;;;2.67;2.57;;;;;;;12.27;100.00;65456.81;5094731;28;20305;-70
2022/07/28 04:46:12;;;;;;;3.10;3.03;;;;;;;12.26;100.00;65463.50;5094452;28;20593;-70
2022/07/28 04:48:41;;;;;;;2.53;2.53;;;;;;;12.29;100.00;65459.59;5094665;28;20190;-71
2022/07/28 04:51:07;;;;;;;2.80;2.57;;;;;;;;;;5094565;28;20219;-71
2022/07/28 04:53:34;;;;;;;2.90;2.83;;;;;;;12.35;100.00;65479.25;5094327;28;20255;-71
2022/07/28 04:56:01;;;;;;;2.73;2.73;;;;;;;12.30;100.00;65465.91;5094415;28;20272;-71
2022/07/28 04:58:28;;;;;;;2.10;2.10;;;;;;;12.36;100.00;65477.22;5094712;28;20191;-71
2022/07/28 05:00:56;;;;;;;3.07;2.50;;;;;;;12.33;100.00;65477.03;5094387;28;20191;-71
2022/07/28 05:03:23;;;;;;;3.07;3.07;;;;;;;;;;5094050;28;20193;-71
2022/07/28 05:05:50;;;;;;;3.00;2.83;;;;;;;12.39;100.00;65478.50;5093984;28;20205;-71
2022/07/28 05:08:20;;;;;;;3.03;2.83;;;;;;;12.51;99.75;65488.13;5094067;28;20186;-71
2022/07/28 05:10:47;;;;;;;2.47;2.37;;;;;;;12.55;99.47;65490.50;5093894;28;20193;-71
2022/07/28 05:13:13;;;;;;;4.30;2.60;;;;;;;12.51;99.81;65485.53;5094245;28;20547;-71
2022/07/28 05:15:40;;;;;;;8.30;2.87;;;;;;;12.52;99.84;65489.78;5093880;28;20264;-70
2022/07/28 05:18:06;;;;;;;4.30;2.97;;;;;;;;;;5094317;28;20662;-70
2022/07/28 05:20:32;;;;;;;3.10;2.87;;;;;;;12.65;99.52;65501.06;5093838;28;20185;-71
2022/07/28 05:22:59;;;;;;;4.57;3.27;;;;;;;12.74;99.72;65511.06;5093794;28;20210;-70
2022/07/28 05:25:25;;;;;;;3.07;3.00;;;;;;;12.81;99.45;65518.81;5094002;28;20634;-70
2022/07/28 05:27:53;;;;;;;2.80;2.70;;;;;;;12.95;98.34;65542.19;5093571;28;20194;-71
2022/07/28 05:30:19;;;;;;;3.10;3.00;;;;;;;13.01;98.34;65539.94;5093718;28;20190;-71
2022/07/28 05:32:47;;;;;;;3.10;3.00;;;;;;;12.93;98.54;65532.16;5093551;28;20258;-71
2022/07/28 05:35:14;;;;;;;2.33;2.33;;;;;;;13.04;98.45;65545.88;5093488;28;20253;-70
2022/07/28 05:37:41;;;;;;;3.10;3.00;;;;;;;13.08;97.62;65547.72;5093909;28;20644;-71
2022/07/28 05:40:13;;;;;;;2.83;2.73;;;;;;;13.11;98.14;65551.59;5092796;28;20196;-71
2022/07/28 05:42:41;;;;;;;3.03;2.93;;;;;;;13.14;97.03;65559.56;5093853;28;20225;-71
2022/07/28 05:45:09;;;;;;;4.40;2.73;;;;;;;13.14;97.05;65559.56;5093353;28;20683;-71
2022/07/28 05:47:42;;;;;;;5.40;3.00;;;;;;;;;;5093990;28;20220;-71
2022/07/28 05:50:09;;;;;;;2.97;2.80;;;;;;;13.35;97.14;65575.09;5093374;28;20188;-71
2022/07/28 05:52:36;;;;;;;3.17;2.97;;;;;;;13.47;96.71;65595.72;5093333;28;20258;-71
2022/07/28 05:55:05;;;;;;;4.40;2.73;;;;;;;13.58;96.09;65602.19;5093486;28;20711;-70
2022/07/28 05:57:31;;;;;;;3.60;3.50;;;;;;;13.50;94.89;65593.81;5093326;28;20217;-72
2022/07/28 05:59:58;;;;;;;3.57;3.33;;;;;;;13.54;95.24;65597.72;5093585;28;20192;-71
2022/07/28 06:02:24;;;;;;;2.70;2.70;;;;;;;13.58;95.10;65607.41;5093322;28;20203;-71
2022/07/28 06:04:51;;;;;;;3.10;3.07;;;;;;;13.58;95.46;65602.19;5093229;28;20705;-71
2022/07/28 06:07:17;;;;;;;3.13;3.13;;;;;;;13.65;95.14;65609.97;5093247;28;20728;-71
2022/07/28 06:09:43;;;;;;;3.33;3.23;;;;;;;13.68;95.40;65610.69;5093208;28;20189;-71
2022/07/28 06:12:10;;;;;;;4.57;3.10;;;;;;;13.83;94.37;65632.56;5093104;28;20214;-71
2022/07/28 06:14:37;;;;;;;6.70;2.57;;;;;;;13.83;95.27;65626.78;5093185;28;20202;-71
2022/07/28 06:17:03;;;;;;;3.20;3.10;;;;;;;13.95;94.78;65640.69;5093397;28;20624;-71
2022/07/28 06:19:30;;;;;;;3.30;3.20;;;;;;;13.90;94.38;65637.19;5093354;28;20520;-71
2022/07/28 06:21:56;;;;;;;3.80;3.33;;;;;;;14.02;94.12;65651.09;5093340;28;20647;-71
2022/07/28 06:24:23;;;;;;;2.87;2.77;;;;;;;;;;5093048;28;20248;-71
2022/07/28 06:26:49;;;;;;;3.30;3.07;;;;;;;14.24;94.00;65674.97;5092998;28;20221;-71
2022/07/28 06:29:16;;;;;;;3.13;3.13;;;;;;;14.34;94.17;65696.00;5093331;28;20178;-71
2022/07/28 06:31:42;;;;;;;4.30;3.67;;;;;;;;;;5093770;28;20572;-71
2022/07/28 06:34:08;;;;;;;2.47;2.47;;;;;;;14.67;93.05;65723.78;5092866;28;20267;-70
2022/07/28 06:36:35;;;;;;;4.53;2.97;;;;;;;14.78;91.12;65731.34;5093519;28;20194;-72
2022/07/28 06:39:01;;;;;;;3.10;2.90;;;;;;;14.84;90.26;65737.47;5093005;28;20190;-71
2022/07/28 06:41:28;;;;;;;2.70;2.60;;;;;;;14.94;91.45;65750.66;5093205;28;20621;-71
2022/07/28 06:43:54;;;;;;;3.00;2.80;;;;;;;15.01;90.21;65764.22;5092833;28;20190;-71
2022/07/28 06:46:21;;;;;;;2.60;2.40;;;;;;;15.05;89.92;65755.59;5093151;28;20654;-72
2022/07/28 06:48:48;;;;;;;3.87;3.27;;;;;;;;;;5093141;28;20209;-71
2022/07/28 06:51:17;;;;;;;8.63;2.77;;;;;;;15.21;88.08;65785.91;5094239;28;20788;-72
2022/07/28 06:53:46;;;;;;;2.93;2.87;;;;;;;15.11;88.73;65767.50;5096831;28;20182;-70
2022/07/28 06:56:13;;;;;;;2.40;2.40;;;;;;;15.19;88.57;65775.84;5096880;28;20170;-71
2022/07/28 06:58:41;;;;;;;2.53;2.40;;;;;;;15.30;89.42;65782.88;5097102;28;20178;-71
2022/07/28 07:01:13;;;;;;;3.20;2.47;;;;;;;15.39;88.78;65811.19;5097076;28;20178;-71
2022/07/28 07:03:41;;;;;;;3.00;2.70;;;;;;;;;;5096639;28;20185;-70
2022/07/28 07:06:09;;;;;;;2.40;2.33;;;;;;;;;;5096346;28;20276;-71
2022/07/28 07:08:35;;;;;;;2.80;2.70;;;;;;;;;;5096592;28;20186;-71
2022/07/28 07:11:02;;;;;;;2.77;2.77;;;;;;;15.95;86.41;65862.00;5096578;28;20198;-71
2022/07/28 07:13:28;;;;;;;3.20;2.73;;;;;;;16.04;84.74;65868.28;5096670;28;20206;-72
2022/07/28 07:15:55;;;;;;;2.77;2.57;;;;;;;16.18;84.40;65883.88;5096148;28;20209;-72
2022/07/28 07:18:21;;;;;;;2.73;2.53;;;;;;;16.23;84.82;65892.63;5096189;28;20638;-71
2022/07/28 07:20:48;;;;;;;2.77;2.37;;;;;;;16.33;83.69;65900.03;5096165;28;20182;-71
2022/07/28 07:23:14;;;;;;;3.33;2.10;;;;;;;16.39;83.54;65909.34;5096255;28;20232;-71
2022/07/28 07:25:41;;;;;;;2.10;2.10;;;;;;;;;;5096247;28;20214;-71
2022/07/28 07:28:07;;;;;;;2.33;2.33;;;;;;;16.60;82.83;65930.13;5095834;28;20251;-72
2022/07/28 07:30:33;;;;;;;2.43;2.33;;;;;;;16.71;83.76;65947.06;5095943;28;20606;-71
2022/07/28 07:33:00;;;;;;;2.47;2.33;;;;;;;16.80;82.56;65953.94;5095837;28;20198;-71
2022/07/28 07:35:33;;;;;;;3.50;2.17;;;;;;;16.67;80.54;65939.97;5095860;28;20206;-72
2022/07/28 07:37:59;;;;;;;2.10;2.10;;;;;;;16.78;81.34;65944.38;5096360;28;20186;-72
2022/07/28 07:40:25;;;;;;;7.60;3.13;;;;;;;;;;5095685;28;20210;-71
2022/07/28 07:42:52;;;;;;;2.10;2.10;;;;;;;16.73;80.50;65949.31;5095686;28;20190;-71
2022/07/28 07:45:18;;;;;;;5.97;2.10;;;;;;;16.81;80.86;65962.91;5095552;28;20205;-72
2022/07/28 07:47:45;;;;;;;2.17;2.07;;;;;;;17.00;81.46;65976.22;5095549;28;20273;-72
2022/07/28 07:50:11;;;;;;;3.00;2.07;;;;;;;17.11;79.99;65985.84;5095584;28;20186;-71
2022/07/28 07:52:38;;;;;;;3.60;2.00;;;;;;;17.09;79.40;65985.69;5096013;28;20251;-72
2022/07/28 07:55:05;;;;;;;2.17;2.17;;;;;;;17.11;78.17;65987.94;5095638;28;20636;-71
2022/07/28 07:57:31;;;;;;;2.37;2.37;;;;;;;17.14;78.61;65988.63;5095410;28;20551;-71
2022/07/28 07:59:58;;;;;;;1.93;1.93;;;;;;;17.10;78.02;65984.75;5095388;28;20239;-71
2022/07/28 08:02:24;;;;;;;2.80;2.13;;;;;;;;;;5094848;28;20527;-72
2022/07/28 08:04:50;;;;;;;2.53;2.50;;;;;;;;;;5095302;28;20238;-71
2022/07/28 08:07:17;;;;;;;6.33;2.40;;;;;;;17.17;78.90;65995.16;5095130;28;20648;-70
2022/07/28 08:09:47;;;;;;;2.30;2.20;;;;;;;17.20;77.81;65990.09;5095403;28;20578;-71
2022/07/28 08:12:13;;;;;;;1.83;1.83;;;;;;;17.16;78.48;65994.06;5095009;28;20210;-71
2022/07/28 08:14:40;;;;;;;2.53;2.33;;;;;;;17.25;78.95;66000.91;5095032;28;20687;-71
2022/07/28 08:17:07;;;;;;;2.20;2.10;;;;;;;17.38;78.01;66015.41;5095245;28;20182;-71
2022/07/28 08:19:33;;;;;;;2.60;2.60;;;;;;;17.50;77.84;66028.22;5094865;28;20194;-71
2022/07/28 08:22:00;;;;;;;2.43;2.20;;;;;;;;;;5095447;28;20178;-70
2022/07/28 08:24:26;;;;;;;3.10;2.90;;;;;;;17.49;77.86;66027.66;5094728;28;20266;-71
2022/07/28 08:27:00;;;;;;;2.50;2.40;;;;;;;17.60;78.29;66042.00;5095138;28;20268;-71
2022/07/28 08:29:27;;;;;;;2.53;2.43;;;;;;;17.69;77.70;66052.03;5094754;28;20213;-71
2022/07/28 08:31:53;;;;;;;2.10;2.10;;;;;;;17.75;76.95;66058.75;5095187;28;20289;-71
2022/07/28 08:34:19;;;;;;;2.27;2.23;;;;;;;17.64;76.90;66038.03;5094819;28;20240;-71
2022/07/28 08:37:00;;;;;;;2.37;2.27;;;;;;;17.74;77.41;66057.66;5094937;28;20174;-71
2022/07/28 08:39:26;;;;;;;1.77;1.77;;;;;;;17.89;77.99;66071.19;5094609;28;20215;-71
2022/07/28 08:41:57;;;;;;;2.10;2.00;;;;;;;18.00;76.40;66086.09;5094497;28;20231;-71
2022/07/28 08:44:29;;;;;;;2.20;2.20;;;;;;;18.08;74.93;66095.03;5094465;28;20258;-72
2022/07/28 08:46:57;;;;;;;2.67;2.20;;;;;;;18.19;75.82;66104.09;5094658;28;20229;-71
2022/07/28 08:49:24;;;;;;;1.63;1.63;;;;;;;;;;5094372;28;20250;-71
2022/07/28 08:51:54;;;;;;;1.90;1.90;;;;;;;18.23;74.50;66102.75;5094292;28;20193;-71
2022/07/28 08:54:27;;;;;;;2.20;2.20;;;;;;;18.28;73.76;66116.78;5094598;28;20198;-71
2022/07/28 08:56:54;;;;;;;2.40;2.30;;;;;;;18.37;75.27;66126.81;5094495;28;20678;-71
2022/07/28 08:59:22;;;;;;;2.00;1.90;;;;;;;18.46;73.63;66133.69;5094217;28;20257;-71
2022/07/28 09:01:50;;;;;;;2.10;2.00;;;;;;;18.48;73.22;66137.97;5094662;28;20182;-71
2022/07/28 09:04:23;;;;;;;1.70;1.60;;;;;;;18.51;74.98;66138.72;5094376;28;20213;-72
2022/07/28 09:06:50;;;;;;;1.80;1.80;;;;;;;18.65;73.22;66157.53;5094386;28;20189;-71
2022/07/28 09:09:16;;;;;;;1.50;1.50;;;;;;;;;;5094062;28;20186;-71
2022/07/28 09:11:42;;;;;;;1.73;1.73;;;;;;;;;;5094492;28;20604;-71
2022/07/28 09:14:09;;;;;;;4.10;1.50;;;;;;;;;;5093880;28;20201;-70
2022/07/28 09:16:36;;;;;;;5.90;1.47;;;;;;;;;;5093889;28;20239;-71
2022/07/28 09:19:02;;;;;;;1.50;1.40;;;;;;;18.89;71.70;66180.59;5094601;28;20235;-70
2022/07/28 09:21:29;;;;;;;1.50;1.50;;;;;;;19.02;72.53;66197.19;5093850;28;20186;-71
2022/07/28 09:23:56;;;;;;;2.00;1.57;;;;;;;19.05;72.10;66201.06;5093925;28;20648;-70
2022/07/28 09:26:22;;;;;;;2.30;1.70;;;;;;;19.13;71.83;66206.81;5093706;28;20227;-72
2022/07/28 09:28:53;;;;;;;1.47;1.47;;;;;;;;;;5093730;28;20232;-71
2022/07/28 09:31:22;;;;;;;3.00;1.77;;;;;;;19.03;71.00;66198.84;5093725;28;20178;-71
2022/07/28 09:33:55;;;;;;;1.87;1.87;;;;;;;;;;5093772;28;20241;-70
2022/07/28 09:36:22;;;;;;;2.77;1.60;;;;;;;19.06;70.26;66199.56;5093712;28;20193;-71
2022/07/28 09:38:49;;;;;;;2.00;1.90;;;;;;;19.15;71.06;66214.88;5093904;28;20186;-72
2022/07/28 09:41:18;;;;;;;6.47;1.40;;;;;;;;;;5093582;28;20199;-71
2022/07/28 09:43:45;;;;;;;2.80;2.37;;;;;;;19.32;69.18;66222.78;5093788;28;20186;-71
2022/07/28 09:46:21;;;;;;;1.73;1.70;;;;;;;;;;5093828;28;20181;-71
2022/07/28 09:48:47;;;;;;;2.77;2.30;;;;;;;;;;5093459;28;20614;-71
2022/07/28 09:51:17;;;;;;;2.73;1.77;;;;;;;19.41;67.72;66232.81;5093729;28;20190;-71
2022/07/28 09:53:44;;;;;;;1.60;1.60;;;;;;;19.48;68.76;66238.00;5093273;28;20621;-71
2022/07/28 09:56:12;;;;;;;2.40;1.73;;;;;;;19.53;67.68;66245.69;5093369;28;20660;-72
2022/07/28 09:58:38;;;;;;;1.93;1.83;;;;;;;;;;5093389;28;20174;-71
2022/07/28 10:01:07;;;;;;;2.77;1.67;;;;;;;;;;5093894;28;20178;-71
2022/07/28 10:03:36;;;;;;;3.47;3.27;;;;;;;19.44;67.39;66241.47;5093264;28;20186;-71
2022/07/28 10:06:10;;;;;;;2.17;2.07;;;;;;;;;;5093143;28;20201;-72
2022/07/28 10:08:40;;;;;;;1.97;1.93;;;;;;;;;;5093258;28;20170;-73
2022/07/28 10:11:09;;;;;;;2.00;1.80;;;;;;;19.75;66.65;66278.19;5093243;28;20261;-71
2022/07/28 10:13:50;;;;;;;3.57;1.70;;;;;;;19.71;66.20;66273.16;5093387;28;20206;-72
2022/07/28 10:16:17;;;;;;;6.47;1.93;;;;;;;;;;5093418;28;20186;-71
2022/07/28 10:18:44;;;;;;;2.37;1.70;;;;;;;;;;5093410;28;20202;-72
2022/07/28 10:21:12;;;;;;;3.23;2.10;;;;;;;;;;5093090;28;20243;-72
2022/07/28 10:23:40;;;;;;;2.50;2.40;;;;;;;20.06;64.56;66304.34;5093036;28;20182;-71
2022/07/28 10:26:08;;;;;;;1.20;1.20;;;;;;;;;;5094575;28;20185;-71
2022/07/28 10:28:49;;;;;;;1.30;1.30;;;;;;;20.23;65.87;66333.34;5097154;28;20190;-71
2022/07/28 10:31:33;;;;;;;2.53;2.20;;;;;;;20.18;63.15;66316.66;5097362;28;20173;-71
2022/07/28 10:34:00;;;;;;;1.90;1.70;;;;;;;;;;5097167;28;20214;-71
2022/07/28 10:36:29;;;;;;;1.80;1.50;;;;;;;20.32;62.61;66340.22;5096949;28;20182;-72
2022/07/28 10:39:02;;;;;;;2.00;1.90;;;;;;;;;;5097280;28;20178;-72
2022/07/28 10:41:37;;;;;;;2.80;1.20;;;;;;;20.37;63.68;66337.91;5097180;28;20175;-71
2022/07/28 10:44:04;;;;;;;1.23;1.20;;;;;;;20.40;63.25;66346.50;5097413;28;20202;-71
2022/07/28 10:46:31;;;;;;;1.50;1.50;;;;;;;20.39;62.76;66348.03;5097408;28;20174;-72
2022/07/28 10:49:00;;;;;;;3.40;1.93;;;;;;;20.40;63.33;66341.25;5097178;28;20204;-72
2022/07/28 10:51:29;;;;;;;5.80;1.60;;;;;;;;;;5097334;28;20178;-72
2022/07/28 10:54:02;;;;;;;1.60;1.60;;;;;;;20.31;62.72;66342.28;5096524;28;20220;-72
2022/07/28 10:56:37;;;;;;;2.47;2.10;;;;;;;20.29;64.43;66334.78;5096959;28;20620;-71
2022/07/28 10:59:18;;;;;;;1.63;1.63;;;;;;;20.28;63.70;66335.72;5097728;28;20256;-72
2022/07/28 11:01:47;;;;;;;1.20;1.20;;;;;;;20.37;61.21;66343.16;5096807;28;20174;-71
2022/07/28 11:04:34;;;;;;;1.30;1.30;;;;;;;;;;5097057;28;20259;-71
2022/07/28 11:07:11;;;;;;;2.50;1.30;;;;;;;20.48;61.26;66358.13;5096655;28;20255;-72
2022/07/28 11:09:38;;;;;;;3.60;1.60;;;;;;;20.54;61.36;66354.28;5096580;28;20178;-72
2022/07/28 11:12:05;;;;;;;1.70;1.70;;;;;;;;;;5096862;28;20189;-71
2022/07/28 11:14:35;;;;;;;3.30;2.23;;;;;;;;;;5096603;28;20247;-72
2022/07/28 11:17:03;;;;;;;2.53;1.80;;;;;;;20.65;60.42;66368.66;5096155;28;20182;-72
2022/07/28 11:19:42;;;;;;;6.47;1.90;;;;;;;20.67;61.93;66378.25;5096340;28;20246;-71
2022/07/28 11:22:28;;;;;;;2.60;1.30;;;;;;;;;;5096452;28;20700;-71
2022/07/28 11:25:03;;;;;;;1.60;1.60;;;;;;;;;;5096279;28;20210;-71
2022/07/28 11:27:49;;;;;;;1.50;1.40;;;;;;;;;;5096185;28;20190;-72
2022/07/28 11:30:35;;;;;;;1.63;1.63;;;;;;;20.78;61.94;66382.63;5096246;28;20182;-72
2022/07/28 11:33:03;;;;;;;2.03;2.03;;;;;;;20.87;60.87;66401.19;5096114;28;20201;-72
2022/07/28 11:35:50;;;;;;;1.83;1.67;;;;;;;;;;5095688;28;20271;-72
2022/07/28 11:38:17;;;;;;;2.53;1.40;;;;;;;;;;5095208;28;20231;-72
2022/07/28 11:40:45;;;;;;;4.00;1.60;;;;;;;21.13;59.97;66426.50;5096272;28;20251;-72
2022/07/28 11:43:25;;;;;;;1.17;1.17;;;;;;;21.17;59.27;66423.63;5096032;28;20223;-72
2022/07/28 11:46:05;;;;;;;6.33;1.37;;;;;;;21.21;59.95;66434.88;5095613;28;20717;-71
2022/07/28 11:48:36;;;;;;;1.67;1.57;;;;;;;;;;5095627;28;20212;-73
2022/07/28 11:51:02;;;;;;;7.77;1.97;;;;;;;21.15;57.99;66420.81;5095536;28;20186;-72
2022/07/28 11:53:39;;;;;;;1.40;1.40;;;;;;;;;;5095450;28;20213;-73
2022/07/28 11:56:07;;;;;;;1.40;1.40;;;;;;;21.22;58.97;66436.56;5095433;28;20543;-71
2022/07/28 11:58:34;;;;;;;1.63;1.23;;;;;;;21.24;59.88;66438.25;5095697;28;20181;-72
2022/07/28 12:01:14;;;;;;;1.27;1.27;;;;;;;;;;5077265;28;20189;-73
2022/07/28 12:03:46;;;;;;;1.00;1.00;;;;;;;21.45;55.97;66453.84;5095891;28;20166;-71
2022/07/28 12:06:22;;;;;;;1.80;1.67;;;;;;;21.43;57.08;66459.50;5095575;28;20584;-72
2022/07/28 12:09:04;;;;;;;4.57;1.80;;;;;;;21.55;58.88;66467.66;5095663;28;20178;-72
2022/07/28 12:11:32;;;;;;;1.40;1.30;;;;;;;21.56;58.57;66468.78;5095489;28;20209;-72
2022/07/28 12:14:06;;;;;;;2.50;1.10;;;;;;;21.59;58.64;66477.44;5094967;28;20218;-73